createdAt,value
2022-08-25T00:02:19.182Z,23.70
2022-08-25T00:04:46.324Z,23.70
2022-08-25T00:07:20.984Z,23.70
2022-08-25T00:09:48.192Z,23.60
2022-08-25T00:12:15.478Z,23.60
2022-08-25T00:14:43.650Z,23.60
2022-08-25T00:17:10.635Z,23.60
2022-08-25T00:19:39.078Z,23.50
2022-08-25T00:22:08.100Z,23.50
2022-08-25T00:24:35.586Z,23.50
2022-08-25T00:27:02.663Z,23.40
2022-08-25T00:29:30.774Z,23.40
2022-08-25T00:31:58.523Z,23.40
2022-08-25T00:34:30.519Z,23.40
2022-08-25T00:36:57.513Z,23.40
2022-08-25T00:39:25.394Z,23.30
2022-08-25T00:41:55.889Z,23.30
2022-08-25T00:44:23.760Z,23.30
2022-08-25T00:46:53.555Z,23.30
2022-08-25T00:49:35.651Z,23.30
2022-08-25T00:52:16.388Z,23.30
2022-08-25T00:55:07.658Z,23.30
2022-08-25T00:57:41.387Z,23.20
2022-08-25T01:00:15.552Z,23.20
2022-08-25T01:02:42.868Z,23.20
2022-08-25T01:05:09.869Z,23.20
2022-08-25T01:07:37.512Z,23.20
2022-08-25T01:10:07.982Z,23.20
2022-08-25T01:12:37.527Z,23.10
2022-08-25T01:15:07.269Z,23.10
2022-08-25T01:17:45.564Z,23.10
2022-08-25T01:20:14.026Z,23.10
2022-08-25T01:22:41.356Z,23.00
2022-08-25T01:25:24.709Z,23.00
2022-08-25T01:27:51.883Z,22.90
2022-08-25T01:30:19.280Z,22.90
2022-08-25T01:32:46.461Z,22.90
2022-08-25T01:35:14.331Z,22.80
2022-08-25T01:37:41.358Z,22.80
2022-08-25T01:40:09.201Z,22.70
2022-08-25T01:42:39.239Z,22.70
2022-08-25T01:45:06.756Z,22.70
2022-08-25T01:47:34.107Z,22.70
2022-08-25T01:50:01.054Z,22.60
2022-08-25T01:52:32.308Z,22.60
2022-08-25T01:55:02.335Z,22.60
2022-08-25T01:57:35.406Z,22.50
2022-08-25T02:00:04.636Z,22.50
2022-08-25T02:02:31.747Z,22.50
2022-08-25T02:05:00.975Z,22.50
2022-08-25T02:07:28.127Z,22.50
2022-08-25T02:09:56.072Z,22.50
2022-08-25T02:12:26.665Z,22.50
2022-08-25T02:14:53.616Z,22.50
2022-08-25T02:17:20.542Z,22.50
2022-08-25T02:19:47.683Z,22.50
2022-08-25T02:22:14.681Z,22.50
2022-08-25T02:24:41.636Z,22.50
2022-08-25T02:27:10.232Z,22.50
2022-08-25T02:29:37.194Z,22.50
2022-08-25T02:32:04.449Z,22.40
2022-08-25T02:34:32.421Z,22.40
2022-08-25T02:36:59.370Z,22.30
2022-08-25T02:39:26.337Z,22.30
2022-08-25T02:41:53.387Z,22.20
2022-08-25T02:44:20.334Z,22.20
2022-08-25T02:46:47.307Z,22.10
2022-08-25T02:49:14.219Z,22.10
2022-08-25T02:51:41.150Z,22.10
2022-08-25T02:54:08.115Z,22.10
2022-08-25T02:56:35.276Z,22.10
2022-08-25T02:59:03.191Z,22.10
2022-08-25T03:01:32.289Z,22.00
2022-08-25T03:04:02.069Z,22.00
2022-08-25T03:06:29.265Z,22.00
2022-08-25T03:08:56.467Z,21.90
2022-08-25T03:11:26.538Z,21.90
2022-08-25T03:13:54.267Z,21.90
2022-08-25T03:16:21.934Z,21.90
2022-08-25T03:18:49.334Z,21.80
2022-08-25T03:21:17.680Z,21.80
2022-08-25T03:23:45.474Z,21.70
2022-08-25T03:26:30.916Z,21.70
2022-08-25T03:28:58.352Z,21.70
2022-08-25T03:31:27.854Z,21.70
2022-08-25T03:33:55.524Z,21.70
2022-08-25T03:36:22.708Z,21.60
2022-08-25T03:38:49.951Z,21.60
2022-08-25T03:41:29.157Z,21.60
2022-08-25T03:43:57.029Z,21.60
2022-08-25T03:46:27.960Z,21.60
2022-08-25T03:48:55.482Z,21.60
2022-08-25T03:51:23.639Z,21.50
2022-08-25T03:53:51.010Z,21.50
2022-08-25T03:56:18.825Z,21.50
2022-08-25T03:58:46.319Z,21.50
2022-08-25T04:01:13.886Z,21.50
2022-08-25T04:03:43.252Z,21.50
2022-08-25T04:06:10.570Z,21.50
2022-08-25T04:08:38.544Z,21.40
2022-08-25T04:11:07.945Z,21.40
2022-08-25T04:13:34.955Z,21.40
2022-08-25T04:16:02.025Z,21.40
2022-08-25T04:18:31.196Z,21.30
2022-08-25T04:21:12.093Z,21.30
2022-08-25T04:23:41.120Z,21.30
2022-08-25T04:26:17.848Z,21.30
2022-08-25T04:28:45.300Z,21.30
2022-08-25T04:31:14.567Z,21.30
2022-08-25T04:33:42.019Z,21.20
2022-08-25T04:36:12.500Z,21.20
2022-08-25T04:38:41.463Z,21.20
2022-08-25T04:41:13.350Z,21.20
2022-08-25T04:43:41.724Z,21.20
2022-08-25T04:46:20.035Z,21.20
2022-08-25T04:48:48.616Z,21.20
2022-08-25T04:51:23.508Z,21.20
2022-08-25T04:53:51.049Z,21.20
2022-08-25T04:56:20.150Z,21.20
2022-08-25T04:58:47.630Z,21.20
2022-08-25T05:01:17.808Z,21.20
2022-08-25T05:03:52.593Z,21.10
2022-08-25T05:06:19.544Z,21.10
2022-08-25T05:08:46.490Z,21.10
2022-08-25T05:11:17.551Z,21.10
2022-08-25T05:13:51.142Z,21.10
2022-08-25T05:16:20.289Z,21.10
2022-08-25T05:18:47.699Z,21.10
2022-08-25T05:21:17.565Z,21.20
2022-08-25T05:23:47.229Z,21.10
2022-08-25T05:26:21.191Z,21.20
2022-08-25T05:28:54.206Z,21.20
2022-08-25T05:31:22.429Z,21.20
2022-08-25T05:33:50.157Z,21.20
2022-08-25T05:36:19.976Z,21.20
2022-08-25T05:38:47.839Z,21.20
2022-08-25T05:41:17.632Z,21.20
2022-08-25T05:43:46.379Z,21.20
2022-08-25T05:46:13.767Z,21.20
2022-08-25T05:48:40.787Z,21.20
2022-08-25T05:51:10.360Z,21.20
2022-08-25T05:53:39.314Z,21.20
2022-08-25T05:56:06.658Z,21.20
2022-08-25T05:58:34.019Z,21.30
2022-08-25T06:01:20.584Z,21.30
2022-08-25T06:03:47.904Z,21.30
2022-08-25T06:06:16.178Z,21.40
2022-08-25T06:08:46.549Z,21.40
2022-08-25T06:11:15.969Z,21.50
2022-08-25T06:13:43.064Z,21.50
2022-08-25T06:16:10.174Z,21.60
2022-08-25T06:18:37.491Z,21.60
2022-08-25T06:21:13.065Z,21.70
2022-08-25T06:23:40.778Z,21.80
2022-08-25T06:26:19.521Z,21.90
2022-08-25T06:28:49.343Z,22.00
2022-08-25T06:31:17.262Z,22.10
2022-08-25T06:33:44.620Z,22.20
2022-08-25T06:36:11.585Z,22.40
2022-08-25T06:38:38.484Z,22.50
2022-08-25T06:41:07.175Z,22.70
2022-08-25T06:43:35.402Z,22.90
2022-08-25T06:46:16.030Z,23.00
2022-08-25T06:48:44.426Z,23.20
2022-08-25T06:51:15.129Z,23.40
2022-08-25T06:53:44.240Z,23.60
2022-08-25T06:56:11.983Z,23.80
2022-08-25T06:58:39.862Z,23.90
2022-08-25T07:01:20.021Z,24.00
2022-08-25T07:03:48.449Z,24.10
2022-08-25T07:06:18.181Z,24.20
2022-08-25T07:08:47.036Z,24.30
2022-08-25T07:11:16.573Z,24.40
2022-08-25T07:13:45.471Z,24.60
2022-08-25T07:16:13.014Z,24.80
2022-08-25T07:18:39.959Z,25.00
2022-08-25T07:21:08.884Z,25.30
2022-08-25T07:23:36.839Z,25.50
2022-08-25T07:29:09.803Z,25.80
2022-08-25T07:31:37.447Z,25.80
2022-08-25T07:34:23.668Z,25.90
2022-08-25T07:36:52.751Z,26.00
2022-08-25T07:39:22.160Z,26.10
2022-08-25T07:41:51.946Z,26.40
2022-08-25T07:44:22.594Z,26.70
2022-08-25T07:46:51.718Z,27.00
2022-08-25T07:49:23.432Z,27.20
2022-08-25T07:52:04.559Z,27.40
2022-08-25T07:54:35.602Z,27.60
2022-08-25T07:57:09.099Z,27.80
2022-08-25T07:59:40.835Z,28.00
2022-08-25T08:02:18.494Z,28.20
2022-08-25T08:04:53.488Z,28.50
2022-08-25T08:07:25.757Z,28.70
2022-08-25T08:10:42.429Z,28.90
2022-08-25T08:13:00.092Z,29.10
2022-08-25T08:15:29.849Z,29.40
2022-08-25T08:18:00.795Z,29.70
2022-08-25T08:20:28.960Z,30.00
2022-08-25T08:22:59.115Z,30.20
2022-08-25T08:25:29.480Z,30.30
2022-08-25T08:27:56.827Z,30.50
2022-08-25T08:30:25.856Z,30.70
2022-08-25T08:33:09.115Z,30.90
2022-08-25T08:35:36.604Z,31.10
2022-08-25T08:38:07.870Z,31.40
2022-08-25T08:41:26.535Z,31.60
2022-08-25T08:44:20.817Z,31.70
2022-08-25T08:47:08.973Z,31.90
2022-08-25T08:50:16.632Z,32.10
2022-08-25T08:53:15.047Z,32.30
2022-08-25T08:55:52.444Z,32.50
2022-08-25T08:58:36.964Z,32.70
2022-08-25T09:01:04.187Z,32.80
2022-08-25T09:03:39.728Z,32.90
2022-08-25T09:06:27.037Z,32.90
2022-08-25T09:08:56.895Z,32.60
2022-08-25T09:11:31.262Z,32.30
2022-08-25T09:14:17.123Z,31.90
2022-08-25T09:16:56.047Z,31.80
2022-08-25T09:19:42.346Z,32.00
2022-08-25T09:22:35.413Z,32.10
2022-08-25T09:25:29.535Z,32.10
2022-08-25T09:28:36.900Z,32.70
2022-08-25T09:31:12.512Z,32.90
2022-08-25T09:33:39.517Z,32.90
2022-08-25T09:36:08.809Z,33.20
2022-08-25T09:38:36.179Z,33.50
2022-08-25T09:41:03.810Z,33.70
2022-08-25T09:43:42.005Z,33.80
2022-08-25T09:46:11.314Z,33.50
2022-08-25T09:48:56.102Z,33.40
2022-08-25T09:51:42.411Z,33.60
2022-08-25T09:54:13.126Z,33.50
2022-08-25T09:56:52.001Z,33.50
2022-08-25T09:59:34.695Z,33.70
2022-08-25T10:02:28.700Z,34.00
2022-08-25T10:04:56.739Z,34.20
2022-08-25T10:07:30.499Z,34.20
2022-08-25T10:10:02.103Z,34.40
2022-08-25T10:12:44.575Z,34.60
2022-08-25T10:15:29.457Z,34.90
2022-08-25T10:18:20.173Z,35.10
2022-08-25T10:21:04.611Z,35.00
2022-08-25T10:23:38.736Z,34.90
2022-08-25T10:26:23.200Z,34.70
2022-08-25T10:29:18.303Z,34.60
2022-08-25T10:31:56.654Z,34.50
2022-08-25T10:34:53.033Z,34.30
2022-08-25T10:37:32.904Z,34.30
2022-08-25T10:40:08.762Z,34.40
2022-08-25T10:42:57.606Z,34.40
2022-08-25T10:45:45.135Z,34.50
2022-08-25T10:48:23.893Z,34.70
2022-08-25T10:51:19.598Z,34.90
2022-08-25T10:54:10.998Z,34.90
2022-08-25T10:56:41.896Z,34.90
2022-08-25T10:59:42.973Z,34.60
2022-08-25T11:02:43.440Z,34.30
2022-08-25T11:05:33.839Z,33.70
2022-08-25T11:08:29.183Z,33.30
2022-08-25T11:11:12.481Z,33.10
2022-08-25T11:14:11.167Z,33.20
2022-08-25T11:17:10.805Z,33.20
2022-08-25T11:19:39.795Z,33.00
2022-08-25T11:22:42.802Z,32.80
2022-08-25T11:25:26.331Z,32.90
2022-08-25T11:28:41.952Z,33.20
2022-08-25T11:31:10.336Z,33.50
2022-08-25T11:33:38.831Z,33.60
2022-08-25T11:36:29.615Z,33.50
2022-08-25T11:39:16.780Z,33.40
2022-08-25T11:41:46.434Z,33.40
2022-08-25T11:44:32.557Z,33.50
2022-08-25T11:47:35.133Z,33.40
2022-08-25T11:50:23.723Z,33.40
2022-08-25T11:53:14.292Z,33.20
2022-08-25T11:55:51.735Z,33.10
2022-08-25T11:58:27.694Z,33.10
2022-08-25T12:01:02.437Z,33.10
2022-08-25T12:03:32.534Z,33.10
2022-08-25T12:06:18.348Z,33.00
2022-08-25T12:08:59.555Z,32.80
2022-08-25T12:11:54.894Z,32.50
2022-08-25T12:14:24.936Z,32.00
2022-08-25T12:17:00.420Z,31.80
2022-08-25T12:19:39.648Z,31.50
2022-08-25T12:22:10.419Z,31.30
2022-08-25T12:24:47.959Z,31.00
2022-08-25T12:27:40.475Z,30.80
2022-08-25T12:30:20.764Z,30.50
2022-08-25T12:33:15.706Z,30.30
2022-08-25T12:35:58.556Z,30.30
2022-08-25T12:38:42.578Z,30.40
2022-08-25T12:41:26.284Z,30.60
2022-08-25T12:44:28.520Z,30.90
2022-08-25T12:47:34.135Z,30.90
2022-08-25T12:50:26.479Z,30.90
2022-08-25T12:52:59.641Z,30.80
2022-08-25T12:55:27.572Z,30.90
2022-08-25T12:57:58.925Z,30.90
2022-08-25T13:00:38.006Z,31.10
2022-08-25T13:03:05.284Z,31.20
2022-08-25T13:06:08.176Z,31.20
2022-08-25T13:09:10.061Z,31.40
2022-08-25T13:12:01.790Z,31.30
2022-08-25T13:14:40.958Z,31.20
2022-08-25T13:17:29.760Z,31.20
2022-08-25T13:20:26.894Z,31.10
2022-08-25T13:23:00.723Z,31.00
2022-08-25T13:25:32.896Z,30.90
2022-08-25T13:28:10.867Z,30.90
2022-08-25T13:30:41.828Z,30.90
2022-08-25T13:33:22.857Z,30.90
2022-08-25T13:36:15.922Z,30.80
2022-08-25T13:38:46.949Z,30.80
2022-08-25T13:41:21.849Z,30.70
2022-08-25T13:44:01.133Z,30.60
2022-08-25T13:46:35.524Z,30.40
2022-08-25T13:49:08.764Z,30.40
2022-08-25T13:51:53.264Z,30.30
2022-08-25T13:54:41.260Z,30.20
2022-08-25T13:57:30.318Z,30.20
2022-08-25T14:00:02.818Z,30.00
2022-08-25T14:02:50.262Z,29.80
2022-08-25T14:05:32.451Z,29.50
2022-08-25T14:08:16.141Z,29.30
2022-08-25T14:11:39.402Z,28.90
2022-08-25T14:14:24.850Z,28.70
2022-08-25T14:17:36.496Z,28.60
2022-08-25T14:20:22.056Z,28.60
2022-08-25T14:22:56.037Z,28.60
2022-08-25T14:25:28.914Z,28.60
2022-08-25T14:28:06.627Z,28.50
2022-08-25T14:30:43.539Z,28.40
2022-08-25T14:33:17.044Z,28.20
2022-08-25T14:35:51.923Z,28.00
2022-08-25T14:38:22.038Z,27.90
2022-08-25T14:40:53.663Z,27.80
2022-08-25T14:43:31.472Z,27.80
2022-08-25T14:46:15.499Z,27.70
2022-08-25T14:48:46.777Z,27.40
2022-08-25T14:51:19.292Z,27.20
2022-08-25T14:53:47.858Z,27.00
2022-08-25T14:56:17.914Z,26.90
2022-08-25T14:58:51.030Z,26.80
2022-08-25T15:01:28.714Z,26.70
2022-08-25T15:04:13.287Z,26.60
2022-08-25T15:06:45.627Z,26.70
2022-08-25T15:09:16.903Z,26.60
2022-08-25T15:11:52.976Z,26.60
2022-08-25T15:14:33.359Z,26.50
2022-08-25T15:17:01.875Z,26.30
2022-08-25T15:19:29.407Z,26.20
2022-08-25T15:21:58.014Z,26.00
2022-08-25T15:24:29.801Z,26.00
2022-08-25T15:27:05.735Z,26.10
2022-08-25T15:29:41.173Z,26.10
2022-08-25T15:32:11.382Z,26.20
2022-08-25T15:34:41.972Z,26.30
2022-08-25T15:37:14.312Z,26.30
2022-08-25T15:39:45.633Z,26.20
2022-08-25T15:42:16.767Z,26.00
2022-08-25T15:44:53.152Z,25.90
2022-08-25T15:47:21.557Z,25.80
2022-08-25T15:49:59.928Z,25.80
2022-08-25T15:52:44.529Z,25.80
2022-08-25T15:55:14.192Z,25.70
2022-08-25T15:57:49.692Z,25.60
2022-08-25T16:00:23.266Z,25.40
2022-08-25T16:02:50.638Z,25.40
2022-08-25T16:05:22.486Z,25.30
2022-08-25T16:07:55.981Z,25.30
2022-08-25T16:10:26.805Z,25.30
2022-08-25T16:12:53.841Z,25.30
2022-08-25T16:15:28.881Z,25.30
2022-08-25T16:18:00.563Z,25.20
2022-08-25T16:20:34.311Z,25.20
2022-08-25T16:23:09.507Z,25.20
2022-08-25T16:25:46.533Z,25.10
2022-08-25T16:28:16.169Z,25.10
2022-08-25T16:30:52.677Z,25.00
2022-08-25T16:33:23.047Z,24.90
2022-08-25T16:35:53.175Z,24.90
2022-08-25T16:38:26.638Z,24.80
2022-08-25T16:40:54.967Z,24.70
2022-08-25T16:43:25.734Z,24.60
2022-08-25T16:46:08.665Z,24.60
2022-08-25T16:48:40.005Z,24.60
2022-08-25T16:51:14.905Z,24.60
2022-08-25T16:54:03.483Z,24.60
2022-08-25T16:56:35.191Z,24.70
2022-08-25T16:59:07.496Z,24.70
2022-08-25T17:01:38.335Z,24.70
2022-08-25T17:04:10.312Z,24.70
2022-08-25T17:06:42.479Z,24.80
2022-08-25T17:09:23.033Z,24.80
2022-08-25T17:11:56.761Z,24.80
2022-08-25T17:14:27.123Z,24.80
2022-08-25T17:16:57.168Z,24.80
2022-08-25T17:19:29.462Z,24.70
2022-08-25T17:21:58.794Z,24.60
2022-08-25T17:24:29.649Z,24.60
2022-08-25T17:27:04.647Z,24.50
2022-08-25T17:29:36.485Z,24.40
2022-08-25T17:32:05.269Z,24.40
2022-08-25T17:34:36.636Z,24.40
2022-08-25T17:37:06.954Z,24.40
2022-08-25T17:39:34.218Z,24.40
2022-08-25T17:42:03.851Z,24.40
2022-08-25T17:44:33.973Z,24.40
2022-08-25T17:47:07.583Z,24.50
2022-08-25T17:49:35.791Z,24.50
2022-08-25T17:52:07.398Z,24.60
2022-08-25T17:54:37.874Z,24.60
2022-08-25T17:57:11.347Z,24.60
2022-08-25T17:59:43.140Z,24.60
2022-08-25T18:02:16.960Z,24.60
2022-08-25T18:04:46.249Z,24.60
2022-08-25T18:07:38.149Z,24.50
2022-08-25T18:10:15.658Z,24.40
2022-08-25T18:12:45.318Z,24.30
2022-08-25T18:15:19.422Z,24.20
2022-08-25T18:17:46.856Z,24.20
2022-08-25T18:20:17.576Z,24.20
2022-08-25T18:22:44.663Z,24.20
2022-08-25T18:25:14.789Z,24.10
2022-08-25T18:27:44.822Z,24.10
2022-08-25T18:30:18.098Z,24.10
2022-08-25T18:32:48.915Z,24.10
2022-08-25T18:35:22.280Z,24.10
2022-08-25T18:38:17.122Z,24.00
2022-08-25T18:40:44.143Z,23.90
2022-08-25T18:43:14.248Z,23.90
2022-08-25T18:45:48.105Z,23.90
2022-08-25T18:48:26.565Z,23.90
2022-08-25T18:51:00.871Z,23.90
2022-08-25T18:53:37.312Z,23.90
2022-08-25T18:56:19.930Z,23.80
2022-08-25T18:58:47.626Z,23.80
2022-08-25T19:01:19.108Z,23.80
2022-08-25T19:03:47.511Z,23.70
2022-08-25T19:06:19.147Z,23.60
2022-08-25T19:08:49.694Z,23.60
2022-08-25T19:11:22.365Z,23.50
2022-08-25T19:13:52.778Z,23.50
2022-08-25T19:16:34.721Z,23.40
2022-08-25T19:19:06.391Z,23.40
2022-08-25T19:21:34.890Z,23.40
2022-08-25T19:24:04.544Z,23.30
2022-08-25T19:26:34.528Z,23.20
2022-08-25T19:29:03.700Z,23.20
2022-08-25T19:31:34.484Z,23.10
2022-08-25T19:34:04.903Z,23.10
2022-08-25T19:36:32.805Z,23.00
2022-08-25T19:39:01.559Z,23.00
2022-08-25T19:41:32.512Z,22.90
2022-08-25T19:44:04.747Z,22.90
2022-08-25T19:46:43.375Z,22.90
2022-08-25T19:49:25.764Z,22.80
2022-08-25T19:51:55.825Z,22.70
2022-08-25T19:54:30.948Z,22.60
2022-08-25T19:56:59.350Z,22.60
2022-08-25T19:59:40.813Z,22.50
2022-08-25T20:02:19.864Z,22.50
2022-08-25T20:04:50.328Z,22.40
2022-08-25T20:07:20.307Z,22.40
2022-08-25T20:09:48.316Z,22.40
2022-08-25T20:12:18.456Z,22.40
2022-08-25T20:14:50.138Z,22.40
2022-08-25T20:17:24.763Z,22.40
2022-08-25T20:20:09.235Z,22.40
2022-08-25T20:22:41.228Z,22.30
2022-08-25T20:25:20.721Z,22.30
2022-08-25T20:27:53.691Z,22.30
2022-08-25T20:30:25.165Z,22.20
2022-08-25T20:32:53.982Z,22.20
2022-08-25T20:35:27.440Z,22.10
2022-08-25T20:38:01.120Z,22.10
2022-08-25T20:40:31.133Z,22.10
2022-08-25T20:43:03.638Z,22.00
2022-08-25T20:45:30.710Z,22.00
2022-08-25T20:47:57.885Z,22.00
2022-08-25T20:50:25.224Z,21.90
2022-08-25T20:52:55.259Z,22.00
2022-08-25T20:55:23.443Z,21.90
2022-08-25T20:57:53.613Z,21.90
2022-08-25T21:00:26.680Z,21.90
2022-08-25T21:02:56.790Z,21.90
2022-08-25T21:05:24.041Z,21.90
2022-08-25T21:07:56.054Z,21.90
2022-08-25T21:10:23.957Z,21.90
2022-08-25T21:12:53.275Z,21.90
2022-08-25T21:15:21.632Z,21.90
2022-08-25T21:17:54.358Z,21.90
2022-08-25T21:20:23.877Z,21.90
2022-08-25T21:22:51.411Z,21.90
2022-08-25T21:25:21.542Z,21.90
2022-08-25T21:27:49.270Z,21.90
2022-08-25T21:30:20.461Z,21.90
2022-08-25T21:32:52.940Z,21.90
2022-08-25T21:35:23.961Z,21.90
2022-08-25T21:37:53.505Z,21.80
2022-08-25T21:40:22.681Z,21.80
2022-08-25T21:42:50.595Z,21.80
2022-08-25T21:45:23.875Z,21.80
2022-08-25T21:47:53.999Z,21.80
2022-08-25T21:50:21.289Z,21.80
2022-08-25T21:52:54.754Z,21.80
2022-08-25T21:55:41.934Z,21.80
2022-08-25T21:58:14.907Z,21.70
2022-08-25T22:00:45.028Z,21.80
2022-08-25T22:03:11.966Z,21.70
2022-08-25T22:05:39.453Z,21.70
2022-08-25T22:08:10.727Z,21.60
2022-08-25T22:10:44.916Z,21.60
2022-08-25T22:13:15.041Z,21.60
2022-08-25T22:15:41.989Z,21.60
2022-08-25T22:18:11.987Z,21.60
2022-08-25T22:20:42.167Z,21.50
2022-08-25T22:23:20.115Z,21.50
2022-08-25T22:25:50.778Z,21.40
2022-08-25T22:28:21.797Z,21.40
2022-08-25T22:30:53.679Z,21.40
2022-08-25T22:33:24.371Z,21.40
2022-08-25T22:35:59.830Z,21.30
2022-08-25T22:38:28.300Z,21.30
2022-08-25T22:41:02.776Z,21.30
2022-08-25T22:43:33.915Z,21.20
2022-08-25T22:46:05.221Z,21.20
2022-08-25T22:48:32.354Z,21.20
2022-08-25T22:51:13.842Z,21.20
2022-08-25T22:53:45.391Z,21.20
2022-08-25T22:56:29.834Z,21.20
2022-08-25T22:59:04.115Z,21.20
2022-08-25T23:01:32.175Z,21.20
2022-08-25T23:04:03.304Z,21.20
2022-08-25T23:06:30.699Z,21.20
2022-08-25T23:08:59.803Z,21.20
2022-08-25T23:11:29.012Z,21.20
2022-08-25T23:14:19.170Z,21.10
2022-08-25T23:16:52.320Z,21.20
2022-08-25T23:19:28.094Z,21.10
2022-08-25T23:22:10.412Z,21.10
2022-08-25T23:24:42.729Z,21.10
2022-08-25T23:27:14.382Z,21.00
2022-08-25T23:29:47.957Z,21.00
2022-08-25T23:32:18.928Z,21.00
2022-08-25T23:34:49.057Z,21.00
2022-08-25T23:37:19.785Z,21.00
2022-08-25T23:39:50.262Z,20.90
2022-08-25T23:42:19.909Z,21.00
2022-08-25T23:44:50.048Z,21.00
2022-08-25T23:47:20.221Z,21.00
2022-08-25T23:49:48.279Z,21.00
2022-08-25T23:52:38.214Z,20.90
2022-08-25T23:55:06.891Z,20.90
2022-08-25T23:57:37.010Z,20.90
